sensor_id;sensor_type;location;lat;lon;timestamp;P1;durP1;ratioP1;P2;durP2;ratioP2
65831;SDS011;52593;42.648;23.332;2023-04-24T00:00:32;14.60;;;8.03;;
65831;SDS011;52593;42.648;23.332;2023-04-24T00:02:57;21.87;;;8.43;;
65831;SDS011;52593;42.648;23.332;2023-04-24T00:05:23;14.83;;;7.80;;
65831;SDS011;52593;42.648;23.332;2023-04-24T00:07:49;13.00;;;7.93;;
65831;SDS011;52593;42.648;23.332;2023-04-24T00:10:17;14.65;;;6.85;;
65831;SDS011;52593;42.648;23.332;2023-04-24T00:12:43;14.38;;;7.05;;
65831;SDS011;52593;42.648;23.332;2023-04-24T00:15:09;14.17;;;7.20;;
65831;SDS011;52593;42.648;23.332;2023-04-24T00:17:35;14.25;;;7.35;;
65831;SDS011;52593;42.648;23.332;2023-04-24T00:20:00;19.03;;;7.13;;
65831;SDS011;52593;42.648;23.332;2023-04-24T00:22:29;13.93;;;7.13;;
65831;SDS011;52593;42.648;23.332;2023-04-24T00:24:55;14.98;;;7.47;;
65831;SDS011;52593;42.648;23.332;2023-04-24T00:27:21;14.30;;;7.40;;
65831;SDS011;52593;42.648;23.332;2023-04-24T00:29:47;15.75;;;7.70;;
65831;SDS011;52593;42.648;23.332;2023-04-24T00:32:12;20.13;;;7.30;;
65831;SDS011;52593;42.648;23.332;2023-04-24T00:34:38;14.98;;;7.85;;
65831;SDS011;52593;42.648;23.332;2023-04-24T00:37:04;17.07;;;7.53;;
65831;SDS011;52593;42.648;23.332;2023-04-24T00:39:30;13.93;;;7.32;;
65831;SDS011;52593;42.648;23.332;2023-04-24T00:41:55;16.90;;;8.03;;
65831;SDS011;52593;42.648;23.332;2023-04-24T00:44:21;14.98;;;8.32;;
65831;SDS011;52593;42.648;23.332;2023-04-24T00:46:47;16.00;;;7.90;;
65831;SDS011;52593;42.648;23.332;2023-04-24T00:49:17;15.57;;;8.00;;
65831;SDS011;52593;42.648;23.332;2023-04-24T00:51:43;15.88;;;8.13;;
65831;SDS011;52593;42.648;23.332;2023-04-24T00:54:10;15.87;;;8.37;;
65831;SDS011;52593;42.648;23.332;2023-04-24T00:56:36;16.42;;;8.48;;
65831;SDS011;52593;42.648;23.332;2023-04-24T00:59:02;19.73;;;8.82;;
65831;SDS011;52593;42.648;23.332;2023-04-24T01:01:28;15.30;;;7.67;;
65831;SDS011;52593;42.648;23.332;2023-04-24T01:03:53;16.65;;;8.25;;
65831;SDS011;52593;42.648;23.332;2023-04-24T01:06:20;17.23;;;8.40;;
65831;SDS011;52593;42.648;23.332;2023-04-24T01:08:45;17.77;;;8.38;;
65831;SDS011;52593;42.648;23.332;2023-04-24T01:11:12;18.83;;;8.53;;
65831;SDS011;52593;42.648;23.332;2023-04-24T01:13:38;16.00;;;8.02;;
65831;SDS011;52593;42.648;23.332;2023-04-24T01:16:04;17.85;;;8.32;;
65831;SDS011;52593;42.648;23.332;2023-04-24T01:18:30;17.47;;;8.43;;
65831;SDS011;52593;42.648;23.332;2023-04-24T01:20:58;18.57;;;8.97;;
65831;SDS011;52593;42.648;23.332;2023-04-24T01:23:26;15.90;;;8.30;;
65831;SDS011;52593;42.648;23.332;2023-04-24T01:25:51;17.23;;;8.37;;
65831;SDS011;52593;42.648;23.332;2023-04-24T01:28:17;17.40;;;8.60;;
65831;SDS011;52593;42.648;23.332;2023-04-24T01:30:43;18.83;;;8.48;;
65831;SDS011;52593;42.648;23.332;2023-04-24T01:33:09;16.93;;;8.20;;
65831;SDS011;52593;42.648;23.332;2023-04-24T01:35:35;17.42;;;9.35;;
65831;SDS011;52593;42.648;23.332;2023-04-24T01:38:02;17.13;;;7.90;;
65831;SDS011;52593;42.648;23.332;2023-04-24T01:40:27;14.53;;;7.63;;
65831;SDS011;52593;42.648;23.332;2023-04-24T01:42:53;14.27;;;8.20;;
65831;SDS011;52593;42.648;23.332;2023-04-24T01:45:18;17.30;;;8.40;;
65831;SDS011;52593;42.648;23.332;2023-04-24T01:47:44;16.37;;;8.00;;
65831;SDS011;52593;42.648;23.332;2023-04-24T01:50:10;17.90;;;8.65;;
65831;SDS011;52593;42.648;23.332;2023-04-24T01:52:36;14.93;;;8.50;;
65831;SDS011;52593;42.648;23.332;2023-04-24T01:55:04;15.88;;;8.35;;
65831;SDS011;52593;42.648;23.332;2023-04-24T01:57:31;17.27;;;8.03;;
65831;SDS011;52593;42.648;23.332;2023-04-24T01:59:58;15.57;;;8.00;;
65831;SDS011;52593;42.648;23.332;2023-04-24T02:02:23;21.00;;;9.30;;
65831;SDS011;52593;42.648;23.332;2023-04-24T02:04:49;18.53;;;8.93;;
65831;SDS011;52593;42.648;23.332;2023-04-24T02:07:16;14.40;;;8.05;;
65831;SDS011;52593;42.648;23.332;2023-04-24T02:09:41;16.93;;;8.20;;
65831;SDS011;52593;42.648;23.332;2023-04-24T02:12:07;14.77;;;7.87;;
65831;SDS011;52593;42.648;23.332;2023-04-24T02:14:32;18.50;;;8.80;;
65831;SDS011;52593;42.648;23.332;2023-04-24T02:16:58;13.60;;;7.47;;
65831;SDS011;52593;42.648;23.332;2023-04-24T02:19:23;15.03;;;7.80;;
65831;SDS011;52593;42.648;23.332;2023-04-24T02:21:48;16.45;;;8.50;;
65831;SDS011;52593;42.648;23.332;2023-04-24T02:24:14;17.57;;;9.13;;
65831;SDS011;52593;42.648;23.332;2023-04-24T02:26:39;17.63;;;8.83;;
65831;SDS011;52593;42.648;23.332;2023-04-24T02:29:05;16.80;;;8.87;;
65831;SDS011;52593;42.648;23.332;2023-04-24T02:31:30;17.83;;;9.17;;
65831;SDS011;52593;42.648;23.332;2023-04-24T02:33:55;19.05;;;8.57;;
65831;SDS011;52593;42.648;23.332;2023-04-24T02:36:21;16.23;;;8.60;;
65831;SDS011;52593;42.648;23.332;2023-04-24T02:38:46;19.13;;;9.33;;
65831;SDS011;52593;42.648;23.332;2023-04-24T02:41:11;18.83;;;9.17;;
65831;SDS011;52593;42.648;23.332;2023-04-24T02:43:37;16.70;;;8.57;;
65831;SDS011;52593;42.648;23.332;2023-04-24T02:46:02;14.85;;;8.63;;
65831;SDS011;52593;42.648;23.332;2023-04-24T02:48:28;17.00;;;8.80;;
65831;SDS011;52593;42.648;23.332;2023-04-24T02:50:53;17.40;;;9.43;;
65831;SDS011;52593;42.648;23.332;2023-04-24T02:53:19;17.17;;;9.03;;
65831;SDS011;52593;42.648;23.332;2023-04-24T02:55:44;14.57;;;8.32;;
65831;SDS011;52593;42.648;23.332;2023-04-24T02:58:10;17.83;;;8.40;;
65831;SDS011;52593;42.648;23.332;2023-04-24T03:00:37;17.50;;;8.63;;
65831;SDS011;52593;42.648;23.332;2023-04-24T03:03:03;14.65;;;8.82;;
65831;SDS011;52593;42.648;23.332;2023-04-24T03:05:28;19.00;;;8.57;;
65831;SDS011;52593;42.648;23.332;2023-04-24T03:07:56;18.58;;;9.07;;
65831;SDS011;52593;42.648;23.332;2023-04-24T03:10:21;18.57;;;8.80;;
65831;SDS011;52593;42.648;23.332;2023-04-24T03:12:49;16.58;;;9.23;;
65831;SDS011;52593;42.648;23.332;2023-04-24T03:15:15;19.97;;;8.67;;
65831;SDS011;52593;42.648;23.332;2023-04-24T03:17:40;16.48;;;8.45;;
65831;SDS011;52593;42.648;23.332;2023-04-24T03:20:06;18.40;;;9.40;;
65831;SDS011;52593;42.648;23.332;2023-04-24T03:22:33;15.55;;;8.32;;
65831;SDS011;52593;42.648;23.332;2023-04-24T03:24:59;20.23;;;9.10;;
65831;SDS011;52593;42.648;23.332;2023-04-24T03:27:25;16.63;;;8.50;;
65831;SDS011;52593;42.648;23.332;2023-04-24T03:29:51;16.90;;;8.80;;
65831;SDS011;52593;42.648;23.332;2023-04-24T03:32:23;18.23;;;8.63;;
65831;SDS011;52593;42.648;23.332;2023-04-24T03:34:49;21.45;;;8.63;;
65831;SDS011;52593;42.648;23.332;2023-04-24T03:37:15;14.50;;;7.95;;
65831;SDS011;52593;42.648;23.332;2023-04-24T03:39:41;16.85;;;8.30;;
65831;SDS011;52593;42.648;23.332;2023-04-24T03:42:06;16.07;;;8.73;;
65831;SDS011;52593;42.648;23.332;2023-04-24T03:44:33;15.30;;;7.95;;
65831;SDS011;52593;42.648;23.332;2023-04-24T03:46:59;17.67;;;8.40;;
65831;SDS011;52593;42.648;23.332;2023-04-24T03:49:24;15.07;;;8.05;;
65831;SDS011;52593;42.648;23.332;2023-04-24T03:51:50;17.73;;;8.55;;
65831;SDS011;52593;42.648;23.332;2023-04-24T03:54:17;17.17;;;8.03;;
65831;SDS011;52593;42.648;23.332;2023-04-24T03:56:42;17.55;;;8.15;;
65831;SDS011;52593;42.648;23.332;2023-04-24T03:59:08;15.43;;;7.90;;
65831;SDS011;52593;42.648;23.332;2023-04-24T04:01:33;15.30;;;8.00;;
65831;SDS011;52593;42.648;23.332;2023-04-24T04:04:01;18.05;;;8.23;;
65831;SDS011;52593;42.648;23.332;2023-04-24T04:06:27;17.17;;;8.35;;
65831;SDS011;52593;42.648;23.332;2023-04-24T04:08:53;13.73;;;7.80;;
65831;SDS011;52593;42.648;23.332;2023-04-24T04:11:19;16.45;;;7.68;;
65831;SDS011;52593;42.648;23.332;2023-04-24T04:13:44;18.40;;;8.10;;
65831;SDS011;52593;42.648;23.332;2023-04-24T04:16:12;16.05;;;7.88;;
65831;SDS011;52593;42.648;23.332;2023-04-24T04:18:38;17.93;;;8.10;;
65831;SDS011;52593;42.648;23.332;2023-04-24T04:21:03;15.10;;;7.80;;
65831;SDS011;52593;42.648;23.332;2023-04-24T04:23:29;15.32;;;7.95;;
65831;SDS011;52593;42.648;23.332;2023-04-24T04:25:54;16.17;;;8.07;;
65831;SDS011;52593;42.648;23.332;2023-04-24T04:28:20;16.17;;;7.47;;
65831;SDS011;52593;42.648;23.332;2023-04-24T04:30:46;15.38;;;8.02;;
65831;SDS011;52593;42.648;23.332;2023-04-24T04:33:12;15.10;;;7.57;;
65831;SDS011;52593;42.648;23.332;2023-04-24T04:35:38;15.23;;;7.83;;
65831;SDS011;52593;42.648;23.332;2023-04-24T04:38:03;17.05;;;8.10;;
65831;SDS011;52593;42.648;23.332;2023-04-24T04:40:29;16.00;;;7.57;;
65831;SDS011;52593;42.648;23.332;2023-04-24T04:42:55;15.40;;;8.17;;
65831;SDS011;52593;42.648;23.332;2023-04-24T04:45:20;17.60;;;8.30;;
65831;SDS011;52593;42.648;23.332;2023-04-24T04:47:46;16.00;;;7.80;;
65831;SDS011;52593;42.648;23.332;2023-04-24T04:50:12;17.50;;;8.63;;
65831;SDS011;52593;42.648;23.332;2023-04-24T04:52:38;17.02;;;8.32;;
65831;SDS011;52593;42.648;23.332;2023-04-24T04:55:04;15.20;;;7.83;;
65831;SDS011;52593;42.648;23.332;2023-04-24T04:57:30;31.38;;;23.90;;
65831;SDS011;52593;42.648;23.332;2023-04-24T04:59:55;19.70;;;12.20;;
65831;SDS011;52593;42.648;23.332;2023-04-24T05:02:21;21.20;;;9.32;;
65831;SDS011;52593;42.648;23.332;2023-04-24T05:04:46;18.57;;;7.53;;
65831;SDS011;52593;42.648;23.332;2023-04-24T05:07:11;19.13;;;7.23;;
65831;SDS011;52593;42.648;23.332;2023-04-24T05:09:37;13.93;;;7.83;;
65831;SDS011;52593;42.648;23.332;2023-04-24T05:12:02;15.97;;;8.60;;
65831;SDS011;52593;42.648;23.332;2023-04-24T05:14:28;15.40;;;7.57;;
65831;SDS011;52593;42.648;23.332;2023-04-24T05:16:53;13.53;;;7.40;;
65831;SDS011;52593;42.648;23.332;2023-04-24T05:19:19;13.50;;;6.18;;
65831;SDS011;52593;42.648;23.332;2023-04-24T05:21:44;17.27;;;6.90;;
65831;SDS011;52593;42.648;23.332;2023-04-24T05:24:10;15.47;;;6.57;;
65831;SDS011;52593;42.648;23.332;2023-04-24T05:26:35;14.73;;;7.00;;
65831;SDS011;52593;42.648;23.332;2023-04-24T05:29:01;11.20;;;5.70;;
65831;SDS011;52593;42.648;23.332;2023-04-24T05:31:27;11.63;;;5.82;;
65831;SDS011;52593;42.648;23.332;2023-04-24T05:33:53;12.87;;;5.47;;
65831;SDS011;52593;42.648;23.332;2023-04-24T05:36:18;18.57;;;5.90;;
65831;SDS011;52593;42.648;23.332;2023-04-24T05:38:43;11.87;;;5.33;;
65831;SDS011;52593;42.648;23.332;2023-04-24T05:41:09;17.13;;;6.15;;
65831;SDS011;52593;42.648;23.332;2023-04-24T05:43:34;11.90;;;5.63;;
65831;SDS011;52593;42.648;23.332;2023-04-24T05:46:00;11.60;;;6.00;;
65831;SDS011;52593;42.648;23.332;2023-04-24T05:48:25;13.70;;;6.17;;
65831;SDS011;52593;42.648;23.332;2023-04-24T05:50:51;12.68;;;6.03;;
65831;SDS011;52593;42.648;23.332;2023-04-24T05:53:17;13.32;;;6.28;;
65831;SDS011;52593;42.648;23.332;2023-04-24T05:55:43;12.30;;;5.80;;
65831;SDS011;52593;42.648;23.332;2023-04-24T05:58:08;11.85;;;6.65;;
65831;SDS011;52593;42.648;23.332;2023-04-24T06:00:34;15.60;;;6.33;;
65831;SDS011;52593;42.648;23.332;2023-04-24T06:03:00;13.93;;;6.85;;
65831;SDS011;52593;42.648;23.332;2023-04-24T06:05:25;14.80;;;6.73;;
65831;SDS011;52593;42.648;23.332;2023-04-24T06:07:51;13.00;;;6.50;;
65831;SDS011;52593;42.648;23.332;2023-04-24T06:10:16;14.60;;;6.60;;
65831;SDS011;52593;42.648;23.332;2023-04-24T06:12:42;14.60;;;6.30;;
65831;SDS011;52593;42.648;23.332;2023-04-24T06:15:07;12.40;;;6.07;;
65831;SDS011;52593;42.648;23.332;2023-04-24T06:17:33;15.65;;;7.03;;
65831;SDS011;52593;42.648;23.332;2023-04-24T06:19:59;12.10;;;5.93;;
65831;SDS011;52593;42.648;23.332;2023-04-24T06:22:24;12.17;;;6.57;;
65831;SDS011;52593;42.648;23.332;2023-04-24T06:24:50;15.05;;;6.50;;
65831;SDS011;52593;42.648;23.332;2023-04-24T06:27:15;14.73;;;7.10;;
65831;SDS011;52593;42.648;23.332;2023-04-24T06:29:40;13.17;;;6.43;;
65831;SDS011;52593;42.648;23.332;2023-04-24T06:32:06;11.77;;;6.20;;
65831;SDS011;52593;42.648;23.332;2023-04-24T06:34:31;13.93;;;6.03;;
65831;SDS011;52593;42.648;23.332;2023-04-24T06:36:58;12.32;;;6.13;;
65831;SDS011;52593;42.648;23.332;2023-04-24T06:39:24;12.60;;;6.25;;
65831;SDS011;52593;42.648;23.332;2023-04-24T06:41:50;15.87;;;6.10;;
65831;SDS011;52593;42.648;23.332;2023-04-24T06:44:15;14.82;;;6.00;;
65831;SDS011;52593;42.648;23.332;2023-04-24T06:46:41;12.13;;;6.07;;
65831;SDS011;52593;42.648;23.332;2023-04-24T06:49:07;12.75;;;6.30;;
65831;SDS011;52593;42.648;23.332;2023-04-24T06:51:32;12.70;;;6.07;;
65831;SDS011;52593;42.648;23.332;2023-04-24T06:53:58;13.03;;;6.77;;
65831;SDS011;52593;42.648;23.332;2023-04-24T06:56:24;13.73;;;6.53;;
65831;SDS011;52593;42.648;23.332;2023-04-24T06:58:51;14.10;;;6.97;;
65831;SDS011;52593;42.648;23.332;2023-04-24T07:01:16;13.23;;;6.37;;
65831;SDS011;52593;42.648;23.332;2023-04-24T07:03:42;14.90;;;7.32;;
65831;SDS011;52593;42.648;23.332;2023-04-24T07:06:07;14.83;;;7.00;;
65831;SDS011;52593;42.648;23.332;2023-04-24T07:08:36;15.70;;;7.38;;
65831;SDS011;52593;42.648;23.332;2023-04-24T07:11:01;15.73;;;7.43;;
65831;SDS011;52593;42.648;23.332;2023-04-24T07:13:27;18.10;;;8.20;;
65831;SDS011;52593;42.648;23.332;2023-04-24T07:15:53;19.13;;;8.37;;
65831;SDS011;52593;42.648;23.332;2023-04-24T07:18:20;17.15;;;7.43;;
65831;SDS011;52593;42.648;23.332;2023-04-24T07:20:45;13.63;;;7.70;;
65831;SDS011;52593;42.648;23.332;2023-04-24T07:23:11;14.90;;;7.97;;
65831;SDS011;52593;42.648;23.332;2023-04-24T07:25:37;14.40;;;7.93;;
65831;SDS011;52593;42.648;23.332;2023-04-24T07:28:03;14.88;;;8.10;;
65831;SDS011;52593;42.648;23.332;2023-04-24T07:30:29;15.63;;;7.88;;
65831;SDS011;52593;42.648;23.332;2023-04-24T07:32:55;15.60;;;7.67;;
65831;SDS011;52593;42.648;23.332;2023-04-24T07:35:21;12.77;;;7.50;;
65831;SDS011;52593;42.648;23.332;2023-04-24T07:37:46;14.30;;;7.70;;
65831;SDS011;52593;42.648;23.332;2023-04-24T07:40:12;18.95;;;7.28;;
65831;SDS011;52593;42.648;23.332;2023-04-24T07:42:38;13.30;;;7.40;;
65831;SDS011;52593;42.648;23.332;2023-04-24T07:45:04;11.67;;;6.33;;
65831;SDS011;52593;42.648;23.332;2023-04-24T07:47:30;11.60;;;6.20;;
65831;SDS011;52593;42.648;23.332;2023-04-24T07:49:56;11.93;;;6.53;;
65831;SDS011;52593;42.648;23.332;2023-04-24T07:52:22;13.23;;;6.00;;
65831;SDS011;52593;42.648;23.332;2023-04-24T07:54:48;11.25;;;7.13;;
65831;SDS011;52593;42.648;23.332;2023-04-24T07:57:15;13.93;;;6.63;;
65831;SDS011;52593;42.648;23.332;2023-04-24T07:59:40;13.60;;;6.47;;
65831;SDS011;52593;42.648;23.332;2023-04-24T08:02:06;15.02;;;7.10;;
65831;SDS011;52593;42.648;23.332;2023-04-24T08:04:32;12.00;;;6.97;;
65831;SDS011;52593;42.648;23.332;2023-04-24T08:06:57;12.35;;;5.97;;
65831;SDS011;52593;42.648;23.332;2023-04-24T08:09:23;12.30;;;6.13;;
65831;SDS011;52593;42.648;23.332;2023-04-24T08:11:48;12.03;;;6.83;;
65831;SDS011;52593;42.648;23.332;2023-04-24T08:14:13;14.27;;;6.10;;
65831;SDS011;52593;42.648;23.332;2023-04-24T08:16:40;15.10;;;7.97;;
65831;SDS011;52593;42.648;23.332;2023-04-24T08:19:05;13.00;;;6.90;;
65831;SDS011;52593;42.648;23.332;2023-04-24T08:21:31;15.57;;;7.80;;
65831;SDS011;52593;42.648;23.332;2023-04-24T08:23:56;12.53;;;7.17;;
65831;SDS011;52593;42.648;23.332;2023-04-24T08:26:22;13.55;;;7.15;;
65831;SDS011;52593;42.648;23.332;2023-04-24T08:28:47;12.40;;;6.50;;
65831;SDS011;52593;42.648;23.332;2023-04-24T08:31:13;12.17;;;6.80;;
65831;SDS011;52593;42.648;23.332;2023-04-24T08:33:39;12.02;;;6.72;;
65831;SDS011;52593;42.648;23.332;2023-04-24T08:36:06;11.63;;;6.90;;
65831;SDS011;52593;42.648;23.332;2023-04-24T08:38:32;15.38;;;6.47;;
65831;SDS011;52593;42.648;23.332;2023-04-24T08:40:58;14.50;;;6.60;;
65831;SDS011;52593;42.648;23.332;2023-04-24T08:43:25;16.97;;;6.87;;
65831;SDS011;52593;42.648;23.332;2023-04-24T08:45:52;11.55;;;6.30;;
65831;SDS011;52593;42.648;23.332;2023-04-24T08:48:18;13.15;;;6.97;;
65831;SDS011;52593;42.648;23.332;2023-04-24T08:50:43;14.73;;;6.40;;
65831;SDS011;52593;42.648;23.332;2023-04-24T08:53:10;17.55;;;7.30;;
65831;SDS011;52593;42.648;23.332;2023-04-24T08:55:36;14.35;;;7.38;;
65831;SDS011;52593;42.648;23.332;2023-04-24T08:58:02;17.65;;;8.70;;
65831;SDS011;52593;42.648;23.332;2023-04-24T09:00:29;14.80;;;7.80;;
65831;SDS011;52593;42.648;23.332;2023-04-24T09:02:55;14.00;;;7.37;;
65831;SDS011;52593;42.648;23.332;2023-04-24T09:05:22;11.25;;;6.05;;
65831;SDS011;52593;42.648;23.332;2023-04-24T09:07:55;13.15;;;6.13;;
65831;SDS011;52593;42.648;23.332;2023-04-24T09:10:22;17.60;;;9.32;;
65831;SDS011;52593;42.648;23.332;2023-04-24T09:12:52;12.32;;;6.68;;
65831;SDS011;52593;42.648;23.332;2023-04-24T09:15:20;17.33;;;9.33;;
65831;SDS011;52593;42.648;23.332;2023-04-24T09:17:45;18.80;;;7.20;;
65831;SDS011;52593;42.648;23.332;2023-04-24T09:20:11;13.37;;;6.10;;
65831;SDS011;52593;42.648;23.332;2023-04-24T09:22:37;12.00;;;6.13;;
65831;SDS011;52593;42.648;23.332;2023-04-24T09:25:04;15.93;;;7.53;;
65831;SDS011;52593;42.648;23.332;2023-04-24T09:27:32;16.70;;;10.15;;
65831;SDS011;52593;42.648;23.332;2023-04-24T09:30:01;14.15;;;7.05;;
65831;SDS011;52593;42.648;23.332;2023-04-24T09:32:27;11.30;;;6.05;;
65831;SDS011;52593;42.648;23.332;2023-04-24T09:35:05;12.00;;;6.20;;
65831;SDS011;52593;42.648;23.332;2023-04-24T09:37:34;12.40;;;5.53;;
65831;SDS011;52593;42.648;23.332;2023-04-24T09:40:15;10.70;;;5.22;;
65831;SDS011;52593;42.648;23.332;2023-04-24T09:42:43;11.15;;;5.65;;
65831;SDS011;52593;42.648;23.332;2023-04-24T09:45:17;10.95;;;5.25;;
65831;SDS011;52593;42.648;23.332;2023-04-24T09:47:42;10.00;;;5.47;;
65831;SDS011;52593;42.648;23.332;2023-04-24T09:50:11;12.60;;;5.37;;
65831;SDS011;52593;42.648;23.332;2023-04-24T09:52:44;10.23;;;5.57;;
65831;SDS011;52593;42.648;23.332;2023-04-24T09:55:21;14.18;;;7.07;;
65831;SDS011;52593;42.648;23.332;2023-04-24T09:57:49;12.53;;;5.50;;
65831;SDS011;52593;42.648;23.332;2023-04-24T10:00:29;9.68;;;5.55;;
65831;SDS011;52593;42.648;23.332;2023-04-24T10:03:00;11.18;;;5.40;;
65831;SDS011;52593;42.648;23.332;2023-04-24T10:05:28;12.80;;;5.13;;
65831;SDS011;52593;42.648;23.332;2023-04-24T10:07:59;29.23;;;18.70;;
65831;SDS011;52593;42.648;23.332;2023-04-24T10:10:27;11.88;;;6.15;;
65831;SDS011;52593;42.648;23.332;2023-04-24T10:12:53;22.05;;;14.63;;
65831;SDS011;52593;42.648;23.332;2023-04-24T10:15:20;21.08;;;14.25;;
65831;SDS011;52593;42.648;23.332;2023-04-24T10:17:49;11.38;;;6.38;;
65831;SDS011;52593;42.648;23.332;2023-04-24T10:20:24;9.97;;;5.27;;
65831;SDS011;52593;42.648;23.332;2023-04-24T10:22:52;8.85;;;5.13;;
65831;SDS011;52593;42.648;23.332;2023-04-24T10:25:22;8.93;;;5.30;;
65831;SDS011;52593;42.648;23.332;2023-04-24T10:27:50;8.77;;;5.15;;
65831;SDS011;52593;42.648;23.332;2023-04-24T10:30:17;9.20;;;5.10;;
65831;SDS011;52593;42.648;23.332;2023-04-24T10:32:44;12.23;;;4.90;;
65831;SDS011;52593;42.648;23.332;2023-04-24T10:35:10;8.93;;;5.10;;
65831;SDS011;52593;42.648;23.332;2023-04-24T10:37:39;12.23;;;6.57;;
65831;SDS011;52593;42.648;23.332;2023-04-24T10:40:07;13.35;;;5.40;;
65831;SDS011;52593;42.648;23.332;2023-04-24T10:42:34;10.85;;;5.97;;
65831;SDS011;52593;42.648;23.332;2023-04-24T10:45:04;11.60;;;6.90;;
65831;SDS011;52593;42.648;23.332;2023-04-24T10:47:39;10.90;;;6.38;;
65831;SDS011;52593;42.648;23.332;2023-04-24T10:50:07;11.50;;;5.60;;
65831;SDS011;52593;42.648;23.332;2023-04-24T10:52:44;8.30;;;5.05;;
65831;SDS011;52593;42.648;23.332;2023-04-24T10:55:13;9.07;;;4.55;;
65831;SDS011;52593;42.648;23.332;2023-04-24T11:00:27;8.23;;;5.30;;
65831;SDS011;52593;42.648;23.332;2023-04-24T11:02:52;9.20;;;5.20;;
65831;SDS011;52593;42.648;23.332;2023-04-24T11:05:19;10.80;;;5.60;;
65831;SDS011;52593;42.648;23.332;2023-04-24T11:10:53;7.25;;;4.30;;
65831;SDS011;52593;42.648;23.332;2023-04-24T11:13:22;9.15;;;5.05;;
65831;SDS011;52593;42.648;23.332;2023-04-24T11:19:36;11.15;;;5.78;;
65831;SDS011;52593;42.648;23.332;2023-04-24T11:26:51;9.52;;;4.55;;
65831;SDS011;52593;42.648;23.332;2023-04-24T11:29:19;16.27;;;8.30;;
65831;SDS011;52593;42.648;23.332;2023-04-24T11:31:45;11.75;;;5.00;;
65831;SDS011;52593;42.648;23.332;2023-04-24T11:34:16;9.50;;;3.67;;
65831;SDS011;52593;42.648;23.332;2023-04-24T11:36:45;7.65;;;3.70;;
65831;SDS011;52593;42.648;23.332;2023-04-24T11:39:12;8.68;;;3.25;;
65831;SDS011;52593;42.648;23.332;2023-04-24T11:41:39;8.05;;;3.20;;
65831;SDS011;52593;42.648;23.332;2023-04-24T11:44:06;11.07;;;4.07;;
65831;SDS011;52593;42.648;23.332;2023-04-24T11:46:33;12.38;;;5.53;;
65831;SDS011;52593;42.648;23.332;2023-04-24T11:48:58;10.77;;;5.20;;
65831;SDS011;52593;42.648;23.332;2023-04-24T11:51:25;12.90;;;6.63;;
65831;SDS011;52593;42.648;23.332;2023-04-24T11:53:55;7.75;;;4.82;;
65831;SDS011;52593;42.648;23.332;2023-04-24T11:56:22;9.82;;;4.38;;
65831;SDS011;52593;42.648;23.332;2023-04-24T11:58:48;7.93;;;4.57;;
65831;SDS011;52593;42.648;23.332;2023-04-24T12:01:16;9.05;;;5.20;;
65831;SDS011;52593;42.648;23.332;2023-04-24T12:03:42;9.97;;;4.63;;
65831;SDS011;52593;42.648;23.332;2023-04-24T12:06:12;9.07;;;4.70;;
65831;SDS011;52593;42.648;23.332;2023-04-24T12:08:38;9.85;;;4.40;;
65831;SDS011;52593;42.648;23.332;2023-04-24T12:11:04;8.87;;;4.10;;
65831;SDS011;52593;42.648;23.332;2023-04-24T12:13:34;9.38;;;4.40;;
65831;SDS011;52593;42.648;23.332;2023-04-24T12:16:03;6.40;;;4.20;;
65831;SDS011;52593;42.648;23.332;2023-04-24T12:18:32;7.15;;;4.05;;
65831;SDS011;52593;42.648;23.332;2023-04-24T12:23:43;9.15;;;4.88;;
65831;SDS011;52593;42.648;23.332;2023-04-24T12:26:10;8.60;;;3.65;;
65831;SDS011;52593;42.648;23.332;2023-04-24T12:28:36;8.80;;;3.33;;
65831;SDS011;52593;42.648;23.332;2023-04-24T12:31:02;8.02;;;3.70;;
65831;SDS011;52593;42.648;23.332;2023-04-24T12:33:28;6.80;;;3.37;;
65831;SDS011;52593;42.648;23.332;2023-04-24T12:35:58;7.63;;;3.78;;
65831;SDS011;52593;42.648;23.332;2023-04-24T12:38:25;9.38;;;3.53;;
65831;SDS011;52593;42.648;23.332;2023-04-24T12:43:32;10.30;;;4.90;;
65831;SDS011;52593;42.648;23.332;2023-04-24T12:45:59;7.45;;;4.57;;
65831;SDS011;52593;42.648;23.332;2023-04-24T12:48:25;7.07;;;4.28;;
65831;SDS011;52593;42.648;23.332;2023-04-24T12:50:51;7.53;;;4.20;;
65831;SDS011;52593;42.648;23.332;2023-04-24T12:53:16;7.30;;;4.20;;
65831;SDS011;52593;42.648;23.332;2023-04-24T12:55:42;9.63;;;4.93;;
65831;SDS011;52593;42.648;23.332;2023-04-24T12:58:09;8.13;;;4.75;;
65831;SDS011;52593;42.648;23.332;2023-04-24T13:00:34;9.03;;;4.63;;
65831;SDS011;52593;42.648;23.332;2023-04-24T13:03:00;8.77;;;4.40;;
65831;SDS011;52593;42.648;23.332;2023-04-24T13:05:26;8.90;;;4.30;;
65831;SDS011;52593;42.648;23.332;2023-04-24T13:07:51;8.70;;;4.23;;
65831;SDS011;52593;42.648;23.332;2023-04-24T13:10:17;9.73;;;4.57;;
65831;SDS011;52593;42.648;23.332;2023-04-24T13:12:42;8.90;;;4.90;;
65831;SDS011;52593;42.648;23.332;2023-04-24T13:15:10;9.20;;;4.70;;
65831;SDS011;52593;42.648;23.332;2023-04-24T13:17:36;7.63;;;4.60;;
65831;SDS011;52593;42.648;23.332;2023-04-24T13:20:01;8.33;;;4.87;;
65831;SDS011;52593;42.648;23.332;2023-04-24T13:22:27;10.80;;;4.75;;
65831;SDS011;52593;42.648;23.332;2023-04-24T13:24:53;11.50;;;4.85;;
65831;SDS011;52593;42.648;23.332;2023-04-24T13:27:18;7.97;;;4.20;;
65831;SDS011;52593;42.648;23.332;2023-04-24T13:29:44;8.57;;;4.53;;
65831;SDS011;52593;42.648;23.332;2023-04-24T13:32:10;8.05;;;4.68;;
65831;SDS011;52593;42.648;23.332;2023-04-24T13:34:35;7.07;;;4.30;;
65831;SDS011;52593;42.648;23.332;2023-04-24T13:37:01;7.80;;;4.88;;
65831;SDS011;52593;42.648;23.332;2023-04-24T13:39:28;9.75;;;4.88;;
65831;SDS011;52593;42.648;23.332;2023-04-24T13:41:53;7.60;;;4.57;;
65831;SDS011;52593;42.648;23.332;2023-04-24T13:44:20;7.93;;;4.05;;
65831;SDS011;52593;42.648;23.332;2023-04-24T13:46:47;7.72;;;4.18;;
65831;SDS011;52593;42.648;23.332;2023-04-24T13:49:14;7.45;;;4.00;;
65831;SDS011;52593;42.648;23.332;2023-04-24T13:51:40;7.03;;;3.80;;
65831;SDS011;52593;42.648;23.332;2023-04-24T13:54:06;8.70;;;3.97;;
65831;SDS011;52593;42.648;23.332;2023-04-24T13:56:32;8.30;;;5.22;;
65831;SDS011;52593;42.648;23.332;2023-04-24T13:58:57;7.63;;;4.10;;
65831;SDS011;52593;42.648;23.332;2023-04-24T14:01:23;9.13;;;4.40;;
65831;SDS011;52593;42.648;23.332;2023-04-24T14:03:50;8.10;;;4.13;;
65831;SDS011;52593;42.648;23.332;2023-04-24T14:06:19;7.53;;;4.50;;
65831;SDS011;52593;42.648;23.332;2023-04-24T14:08:45;9.18;;;5.93;;
65831;SDS011;52593;42.648;23.332;2023-04-24T14:11:11;8.73;;;5.07;;
65831;SDS011;52593;42.648;23.332;2023-04-24T14:13:36;8.57;;;4.38;;
65831;SDS011;52593;42.648;23.332;2023-04-24T14:16:03;7.88;;;4.22;;
65831;SDS011;52593;42.648;23.332;2023-04-24T14:18:29;12.13;;;4.60;;
65831;SDS011;52593;42.648;23.332;2023-04-24T14:20:54;7.10;;;4.57;;
65831;SDS011;52593;42.648;23.332;2023-04-24T14:23:20;8.57;;;4.33;;
65831;SDS011;52593;42.648;23.332;2023-04-24T14:25:45;7.63;;;4.07;;
65831;SDS011;52593;42.648;23.332;2023-04-24T14:28:11;7.20;;;4.65;;
65831;SDS011;52593;42.648;23.332;2023-04-24T14:30:36;10.63;;;4.70;;
65831;SDS011;52593;42.648;23.332;2023-04-24T14:33:02;6.95;;;4.15;;
65831;SDS011;52593;42.648;23.332;2023-04-24T14:35:29;7.10;;;3.90;;
65831;SDS011;52593;42.648;23.332;2023-04-24T14:37:56;8.20;;;3.90;;